ADDS METAR Data INFO
IDs: Format: Raw Decoded Include TAF

Data at: 0258 UTC 21 Oct 2017

KPIM 210235Z AUTO 00000KT 10SM CLR 14/11 A3021 RMK AO2 T01380110 PWINO
KPIM 210215Z AUTO 00000KT 10SM CLR 14/11 A3021 RMK AO2 T01390106 PWINO
KPIM 210155Z AUTO 00000KT 10SM CLR 14/12 A3021 RMK AO2 T01420121 PWINO
KPIM 210135Z AUTO 00000KT 10SM CLR 14/11 A3020 RMK AO2 T01410112 PWINO
KPIM 210115Z AUTO 00000KT 10SM CLR 14/11 A3020 RMK AO2 T01400111 PWINO
KPIM 210055Z AUTO 00000KT 10SM CLR 15/12 A3020 RMK AO2 T01510120 PWINO
KPIM 210035Z AUTO 00000KT 10SM CLR 16/12 A3020 RMK AO2 T01550121 PWINO
KPIM 210015Z AUTO 00000KT 10SM CLR 16/13 A3020 RMK AO2 T01580127 PWINO
KPIM 202355Z AUTO 00000KT 10SM CLR 16/13 A3019 RMK AO2 T01630127 10276 20159 PWINO
KPIM 202335Z AUTO 10003KT 10SM CLR 17/13 A3019 RMK AO2 T01710133 PWINO
KPIM 202315Z AUTO 00000KT 10SM CLR 18/15 A3019 RMK AO2 T01760147 PWINO
KPIM 202255Z AUTO 00000KT 10SM CLR 19/14 A3018 RMK AO2 T01940144 PWINO
KPIM 202235Z AUTO 00000KT 10SM CLR 22/15 A3018 RMK AO2 T02180145 PWINO
KPIM 202215Z AUTO 00000KT 10SM CLR 25/12 A3018 RMK AO2 T02470121 PWINO
KPIM 202155Z AUTO 10003KT 10SM CLR 26/12 A3018 RMK AO2 T02590122 PWINO
KPIM 202135Z AUTO 09005KT 10SM CLR 26/10 A3018 RMK AO2 T02630101 PWINO
KPIM 202115Z AUTO 06003KT 10SM CLR 26/10 A3018 RMK AO2 T02640098 PWINO
KPIM 202055Z AUTO 07004KT 10SM CLR 27/10 A3018 RMK AO2 T02660097 PWINO
KPIM 202035Z AUTO 08004KT 10SM CLR 27/08 A3019 RMK AO2 T02660084 PWINO
KPIM 202015Z AUTO 07004KT 10SM CLR 27/08 A3019 RMK AO2 T02690082 PWINO
KPIM 201955Z AUTO 10004KT 10SM CLR 28/09 A3019 RMK AO2 T02760093 PWINO
KPIM 201935Z AUTO 00000KT 10SM CLR 27/10 A3020 RMK AO2 T02710100 PWINO
KPIM 201915Z AUTO 06003KT 10SM CLR 27/10 A3020 RMK AO2 T02650099 PWINO
KPIM 201855Z AUTO 08005KT 10SM CLR 27/10 A3020 RMK AO2 T02650101 PWINO
KPIM 201835Z AUTO 11005KT 10SM CLR 26/10 A3021 RMK AO2 T02590097 PWINO
KPIM 201815Z AUTO 05004KT 10SM CLR 26/10 A3022 RMK AO2 T02550098 PWINO
KPIM 201755Z AUTO 05005KT 10SM CLR 25/11 A3023 RMK AO2 T02500108 10264 20084 PWINO
KPIM 201735Z AUTO 00000KT 10SM CLR 25/11 A3025 RMK AO2 T02480108 PWINO
KPIM 201715Z AUTO 06003KT 10SM CLR 25/12 A3026 RMK AO2 T02460119 PWINO
KPIM 201655Z AUTO 10003KT 10SM CLR 25/12 A3028 RMK AO2 T02530122 PWINO
KPIM 201635Z AUTO 00000KT 10SM CLR 24/12 A3028 RMK AO2 T02420119 PWINO
KPIM 201615Z AUTO 00000KT 10SM CLR 24/12 A3028 RMK AO2 T02380123 PWINO
KPIM 201555Z AUTO 05003KT 10SM CLR 23/12 A3028 RMK AO2 T02280115 PWINO
KPIM 201535Z AUTO 09003KT 10SM CLR 23/12 A3028 RMK AO2 T02310117 PWINO
KPIM 201515Z AUTO 05003KT 10SM CLR 22/13 A3029 RMK AO2 T02180134 PWINO
KPIM 201455Z AUTO 04003KT 10SM CLR 21/14 A3029 RMK AO2 T02140137 PWINO
KPIM 201435Z AUTO 11003KT 10SM CLR 21/13 A3030 RMK AO2 T02060130 PWINO
KPIM 201415Z AUTO 00000KT 10SM CLR 18/13 A3030 RMK AO2 T01830131 PWINO
KPIM 201355Z AUTO 00000KT 10SM CLR 17/12 A3030 RMK AO2 T01710122 PWINO
KPIM 201335Z AUTO 00000KT 10SM CLR 15/12 A3030 RMK AO2 T01500115 PWINO
KPIM 201315Z AUTO 00000KT 10SM CLR 14/11 A3030 RMK AO2 T01360106 PWINO
KPIM 201255Z AUTO 00000KT 10SM CLR 12/10 A3028 RMK AO2 T01190101 PWINO
KPIM 201235Z AUTO 06003KT 10SM CLR 11/10 A3028 RMK AO2 T01060095 PWINO
KPIM 201215Z AUTO 00000KT 10SM CLR 08/08 A3028 RMK AO2 T00840080 PWINO
KPIM 201155Z AUTO 00000KT 10SM CLR 09/08 A3027 RMK AO2 T00890083 10105 20078 PWINO
KPIM 201135Z AUTO 00000KT 10SM CLR 09/08 A3027 RMK AO2 T00930084 PWINO
KPIM 201115Z AUTO 05003KT 10SM CLR 09/08 A3027 RMK AO2 T00870081 PWINO
KPIM 201055Z AUTO 00000KT 10SM CLR 08/07 A3026 RMK AO2 T00820074 PWINO
KPIM 201035Z AUTO 00000KT 10SM CLR 08/07 A3026 RMK AO2 T00790073 PWINO
KPIM 201015Z AUTO 00000KT 10SM CLR 08/08 A3026 RMK AO2 T00840077 PWINO
KPIM 200955Z AUTO 00000KT 10SM CLR 08/08 A3025 RMK AO2 T00820078 PWINO
KPIM 200935Z AUTO 00000KT 10SM CLR 08/08 A3025 RMK AO2 T00840079 PWINO
KPIM 200915Z AUTO 00000KT 10SM CLR 09/08 A3025 RMK AO2 T00870083 PWINO
KPIM 200855Z AUTO 00000KT 10SM CLR 08/08 A3025 RMK AO2 T00830080 PWINO
KPIM 200835Z AUTO 00000KT 10SM CLR 09/08 A3024 RMK AO2 T00850079 PWINO
KPIM 200815Z AUTO 00000KT 10SM CLR 08/08 A3024 RMK AO2 T00830076 PWINO
KPIM 200755Z AUTO 00000KT 10SM CLR 09/08 A3024 RMK AO2 T00870080 PWINO
KPIM 200735Z AUTO 00000KT 10SM CLR 09/08 A3025 RMK AO2 T00880079 PWINO
KPIM 200715Z AUTO 00000KT 10SM CLR 09/08 A3025 RMK AO2 T00850080 PWINO
KPIM 200655Z AUTO 00000KT 10SM CLR 09/08 A3025 RMK AO2 T00890084 PWINO
KPIM 200635Z AUTO 00000KT 10SM CLR 09/08 A3025 RMK AO2 T00940083 PWINO
KPIM 200615Z AUTO 00000KT 10SM CLR 10/09 A3025 RMK AO2 T00970091 PWINO
KPIM 200555Z AUTO 00000KT 10SM CLR 10/09 A3025 RMK AO2 T00960087 10157 20096 PWINO
KPIM 200535Z AUTO 00000KT 10SM CLR 10/09 A3025 RMK AO2 T01000093 PWINO
KPIM 200515Z AUTO 00000KT 10SM CLR 10/10 A3025 RMK AO2 T01020095 PWINO
KPIM 200455Z AUTO 00000KT 10SM CLR 10/10 A3025 RMK AO2 T01030096 PWINO
KPIM 200435Z AUTO 00000KT 10SM CLR 11/10 A3025 RMK AO2 T01050096 PWINO
KPIM 200415Z AUTO 00000KT 10SM CLR 11/10 A3025 RMK AO2 T01060100 PWINO
KPIM 200355Z AUTO 00000KT 10SM CLR 11/10 A3026 RMK AO2 T01090102 402580090 PWINO
KPIM 200335Z AUTO 00000KT 10SM CLR 12/11 A3026 RMK AO2 T01150107 PWINO
KPIM 200315Z AUTO 00000KT 10SM CLR 12/11 A3026 RMK AO2 T01160107 PWINO
KPIM 200255Z AUTO 00000KT 10SM CLR 12/11 A3025 RMK AO2 T01150107 PWINO
KPIM 200235Z AUTO 00000KT 10SM CLR 13/12 A3025 RMK AO2 T01270116 PWINO
KPIM 200215Z AUTO 00000KT 10SM CLR 13/12 A3025 RMK AO2 T01270119 PWINO
KPIM 200155Z AUTO 00000KT 10SM CLR 13/12 A3024 RMK AO2 T01290123 PWINO
KPIM 200135Z AUTO 00000KT 10SM CLR 13/12 A3024 RMK AO2 T01330124 PWINO
KPIM 200115Z AUTO 12004KT 10SM CLR 13/13 A3024 RMK AO2 T01310125 PWINO
KPIM 200055Z AUTO 00000KT 10SM CLR 14/13 A3024 RMK AO2 T01350126 PWINO
KPIM 200035Z AUTO 00000KT 10SM CLR 15/13 A3024 RMK AO2 T01480131 PWINO
KPIM 200015Z AUTO 00000KT 10SM CLR 15/14 A3024 RMK AO2 T01480136 PWINO
KPIM 192355Z AUTO 00000KT 10SM CLR 16/14 A3023 RMK AO2 T01580141 10258 20158 PWINO
KPIM 192335Z AUTO 00000KT 10SM CLR 17/14 A3023 RMK AO2 T01650138 PWINO
KPIM 192315Z AUTO 00000KT 10SM CLR 18/14 A3023 RMK AO2 T01800143 PWINO
KPIM 192255Z AUTO 00000KT 10SM CLR 20/14 A3022 RMK AO2 T02020144 PWINO
KPIM 192235Z AUTO 00000KT 10SM CLR 22/14 A3022 RMK AO2 T02220143 PWINO
KPIM 192215Z AUTO 05003KT 10SM CLR 24/14 A3022 RMK AO2 T02350138 PWINO
KPIM 192155Z AUTO 04003KT 10SM CLR 24/14 A3022 RMK AO2 T02380137 PWINO
KPIM 192135Z AUTO 00000KT 10SM CLR 24/14 A3023 RMK AO2 T02400139 PWINO
KPIM 192115Z AUTO 00000KT 10SM CLR 25/14 A3023 RMK AO2 T02450140 PWINO
KPIM 192055Z AUTO 04004KT 10SM CLR 25/13 A3023 RMK AO2 T02470129 PWINO
KPIM 192035Z AUTO 03003KT 10SM CLR 26/12 A3023 RMK AO2 T02560124 PWINO
KPIM 192015Z AUTO 04005KT 10SM CLR 25/13 A3023 RMK AO2 T02480128 PWINO
KPIM 191955Z AUTO 34004KT 10SM CLR 25/13 A3023 RMK AO2 T02460128 PWINO
KPIM 191935Z AUTO 00000KT 10SM CLR 25/12 A3023 RMK AO2 T02460124 PWINO
KPIM 191915Z AUTO 08004KT 10SM CLR 25/13 A3024 RMK AO2 T02480132 PWINO
KPIM 191855Z AUTO 08003KT 10SM CLR 25/13 A3025 RMK AO2 T02480128 PWINO
KPIM 191835Z AUTO 09004KT 10SM CLR 24/13 A3025 RMK AO2 T02420129 PWINO
KPIM 191815Z AUTO 03003KT 10SM CLR 23/13 A3026 RMK AO2 T02320128 PWINO
KPIM 191755Z AUTO 04005KT 10SM CLR 24/13 A3028 RMK AO2 T02370133 10242 20094 PWINO
KPIM 191735Z AUTO 00000KT 10SM CLR 24/14 A3029 RMK AO2 T02360135 PWINO
KPIM 191715Z AUTO 00000KT 10SM CLR 22/13 A3029 RMK AO2 T02230127 PWINO
KPIM 191655Z AUTO 03005KT 10SM CLR 23/13 A3030 RMK AO2 T02250131 PWINO
KPIM 191635Z AUTO 08005KT 10SM CLR 22/13 A3031 RMK AO2 T02200133 PWINO
KPIM 191615Z AUTO 07004KT 10SM CLR 23/14 A3031 RMK AO2 T02250136 PWINO
KPIM 191555Z AUTO 06003KT 10SM CLR 21/13 A3032 RMK AO2 T02140128 PWINO
KPIM 191535Z AUTO 08004KT 10SM CLR 20/12 A3032 RMK AO2 T02010124 PWINO
KPIM 191515Z AUTO 06005KT 10SM CLR 19/12 A3032 RMK AO2 T01920118 PWINO